createdAt,value
2023-04-25T00:02:04.961Z,6.00
2023-04-25T00:04:34.431Z,6.57
2023-04-25T00:07:04.663Z,6.30
2023-04-25T00:09:31.744Z,6.70
2023-04-25T00:11:58.801Z,6.70
2023-04-25T00:14:26.365Z,7.22
2023-04-25T00:16:53.393Z,6.97
2023-04-25T00:19:20.385Z,6.95
2023-04-25T00:21:47.459Z,7.22
2023-04-25T00:24:14.642Z,7.38
2023-04-25T00:26:41.665Z,7.93
2023-04-25T00:29:08.691Z,7.85
2023-04-25T00:31:35.751Z,8.05
2023-04-25T00:34:03.042Z,7.78
2023-04-25T00:36:30.018Z,7.50
2023-04-25T00:38:57.115Z,7.43
2023-04-25T00:41:33.128Z,7.10
2023-04-25T00:44:00.569Z,7.45
2023-04-25T00:46:27.651Z,6.15
2023-04-25T00:48:54.713Z,4.60
2023-04-25T00:51:22.158Z,4.75
2023-04-25T00:53:50.241Z,4.97
2023-04-25T00:56:17.661Z,4.28
2023-04-25T00:58:44.821Z,4.57
2023-04-25T01:01:12.274Z,4.90
2023-04-25T01:03:42.074Z,4.90
2023-04-25T01:06:12.329Z,6.53
2023-04-25T01:08:39.887Z,6.40
2023-04-25T01:11:07.352Z,7.38
2023-04-25T01:13:34.378Z,7.32
2023-04-25T01:16:01.871Z,7.32
2023-04-25T01:18:29.044Z,6.15
2023-04-25T01:20:56.752Z,7.18
2023-04-25T01:23:24.135Z,8.82
2023-04-25T01:25:51.325Z,9.60
2023-04-25T01:28:18.440Z,9.50
2023-04-25T01:30:45.555Z,7.70
2023-04-25T01:33:12.572Z,7.70
2023-04-25T01:35:39.854Z,7.60
2023-04-25T01:38:06.804Z,8.02
2023-04-25T01:40:33.837Z,8.10
2023-04-25T01:43:00.830Z,8.63
2023-04-25T01:45:27.826Z,9.85
2023-04-25T01:47:54.903Z,10.73
2023-04-25T01:50:22.113Z,12.98
2023-04-25T01:52:49.152Z,16.67
2023-04-25T01:55:16.272Z,20.85
2023-04-25T01:57:43.361Z,20.75
2023-04-25T02:00:11.392Z,18.63
2023-04-25T02:02:38.531Z,16.85
2023-04-25T02:05:06.207Z,7.45
2023-04-25T02:07:33.565Z,6.75
2023-04-25T02:10:00.644Z,5.35
2023-04-25T02:12:28.795Z,4.03
2023-04-25T02:14:55.953Z,3.05
2023-04-25T02:17:23.114Z,3.28
2023-04-25T02:19:50.279Z,2.90
2023-04-25T02:22:17.335Z,2.53
2023-04-25T02:24:44.584Z,2.72
2023-04-25T02:27:11.582Z,1.77
2023-04-25T02:29:38.940Z,1.50
2023-04-25T02:32:06.356Z,1.20
2023-04-25T02:34:33.407Z,1.00
2023-04-25T02:37:00.449Z,0.95
2023-04-25T02:39:28.383Z,1.00
2023-04-25T02:41:55.438Z,0.80
2023-04-25T02:44:22.720Z,0.80
2023-04-25T02:46:49.760Z,0.85
2023-04-25T02:49:16.837Z,0.90
2023-04-25T02:51:43.844Z,0.80
2023-04-25T02:54:11.094Z,1.00
2023-04-25T02:56:38.178Z,0.88
2023-04-25T02:59:05.149Z,0.82
2023-04-25T03:01:32.249Z,0.82
2023-04-25T03:03:59.309Z,1.00
2023-04-25T03:06:26.392Z,0.80
2023-04-25T03:08:53.392Z,1.20
2023-04-25T03:11:21.400Z,0.95
2023-04-25T03:13:48.666Z,1.10
2023-04-25T03:16:16.813Z,1.20
2023-04-25T03:18:43.894Z,1.40
2023-04-25T03:21:10.964Z,1.52
2023-04-25T03:23:37.984Z,1.30
2023-04-25T03:26:05.352Z,1.23
2023-04-25T03:28:32.450Z,1.70
2023-04-25T03:30:59.497Z,1.38
2023-04-25T03:33:26.627Z,1.50
2023-04-25T03:35:54.164Z,1.40
2023-04-25T03:38:21.274Z,1.52
2023-04-25T03:40:48.337Z,1.60
2023-04-25T03:43:15.917Z,1.50
2023-04-25T03:45:43.185Z,1.50
2023-04-25T03:48:10.304Z,1.80
2023-04-25T03:50:37.405Z,1.98
2023-04-25T03:53:04.446Z,1.65
2023-04-25T03:55:32.143Z,1.90
2023-04-25T03:58:01.981Z,2.30
2023-04-25T04:00:29.104Z,2.03
2023-04-25T04:02:56.385Z,2.55
2023-04-25T04:05:23.622Z,1.60
2023-04-25T04:07:50.687Z,1.83
2023-04-25T04:10:17.782Z,1.73
2023-04-25T04:12:45.349Z,2.08
2023-04-25T04:15:13.149Z,2.10
2023-04-25T04:17:40.319Z,2.40
2023-04-25T04:20:08.629Z,2.50
2023-04-25T04:22:36.031Z,2.58
2023-04-25T04:25:03.985Z,2.90
2023-04-25T04:27:31.119Z,2.40
2023-04-25T04:29:58.885Z,2.70
2023-04-25T04:32:26.706Z,2.60
2023-04-25T04:34:56.136Z,3.28
2023-04-25T04:37:23.912Z,2.78
2023-04-25T04:39:51.392Z,3.10
2023-04-25T04:42:18.451Z,2.55
2023-04-25T04:44:45.859Z,3.47
2023-04-25T04:47:15.247Z,3.25
2023-04-25T04:49:42.584Z,3.15
2023-04-25T04:52:09.731Z,3.70
2023-04-25T04:54:36.855Z,3.60
2023-04-25T04:57:04.051Z,2.85
2023-04-25T04:59:31.136Z,3.28
2023-04-25T05:01:58.204Z,3.20
2023-04-25T05:04:25.516Z,2.60
2023-04-25T05:06:52.698Z,3.80
2023-04-25T05:09:20.403Z,3.42
2023-04-25T05:11:47.579Z,4.07
2023-04-25T05:14:14.795Z,4.88
2023-04-25T05:16:42.014Z,5.30
2023-04-25T05:19:09.223Z,6.03
2023-04-25T05:21:36.483Z,7.40
2023-04-25T05:24:04.604Z,6.38
2023-04-25T05:26:32.194Z,6.65
2023-04-25T05:28:59.590Z,8.40
2023-04-25T05:31:26.851Z,8.15
2023-04-25T05:33:54.101Z,8.90
2023-04-25T05:36:21.141Z,10.50
2023-04-25T05:38:48.274Z,9.82
2023-04-25T05:41:15.475Z,8.45
2023-04-25T05:43:48.408Z,8.25
2023-04-25T05:46:16.802Z,9.82
2023-04-25T05:48:44.241Z,8.05
2023-04-25T05:51:11.369Z,7.18
2023-04-25T05:53:38.607Z,6.43
2023-04-25T05:56:06.024Z,6.93
2023-04-25T05:58:33.048Z,6.00
2023-04-25T06:01:00.722Z,6.20
2023-04-25T06:03:28.201Z,5.97
2023-04-25T06:05:55.582Z,4.60
2023-04-25T06:08:22.760Z,5.10
2023-04-25T06:10:50.130Z,4.80
2023-04-25T06:13:17.183Z,5.07
2023-04-25T06:15:44.460Z,4.85
2023-04-25T06:18:11.755Z,4.78
2023-04-25T06:20:39.041Z,5.53
2023-04-25T06:23:06.327Z,5.63
2023-04-25T06:25:33.416Z,5.88
2023-04-25T06:28:00.901Z,5.63
2023-04-25T06:30:28.249Z,5.82
2023-04-25T06:32:55.454Z,6.30
2023-04-25T06:35:22.539Z,7.32
2023-04-25T06:37:50.677Z,8.13
2023-04-25T06:40:18.702Z,10.60
2023-04-25T06:42:45.791Z,11.88
2023-04-25T06:45:12.863Z,11.07
2023-04-25T06:47:40.045Z,11.25
2023-04-25T06:50:07.687Z,12.07
2023-04-25T06:52:34.995Z,12.50
2023-04-25T06:55:02.098Z,13.85
2023-04-25T06:57:29.236Z,12.55
2023-04-25T07:00:01.953Z,13.10
2023-04-25T07:02:29.704Z,13.23
2023-04-25T07:05:00.896Z,16.25
2023-04-25T07:07:28.666Z,18.42
2023-04-25T07:09:56.072Z,21.58
2023-04-25T07:12:23.230Z,21.65
2023-04-25T07:14:50.462Z,22.17
2023-04-25T07:17:17.671Z,23.25
2023-04-25T07:19:44.867Z,24.33
2023-04-25T07:22:11.887Z,24.52
2023-04-25T07:24:39.415Z,26.15
2023-04-25T07:27:06.455Z,24.30
2023-04-25T07:29:34.080Z,25.73
2023-04-25T07:32:01.242Z,25.67
2023-04-25T07:34:28.486Z,24.40
2023-04-25T07:36:55.674Z,22.15
2023-04-25T07:39:24.287Z,19.77
2023-04-25T07:41:54.535Z,20.00
2023-04-25T07:44:22.503Z,19.13
2023-04-25T07:46:49.750Z,21.83
2023-04-25T07:49:17.152Z,23.33
2023-04-25T07:51:47.282Z,23.70
2023-04-25T07:54:15.783Z,26.08
2023-04-25T07:56:52.249Z,24.60
2023-04-25T07:59:20.464Z,21.05
2023-04-25T08:01:47.729Z,22.80
2023-04-25T08:04:15.368Z,24.20
2023-04-25T08:06:43.107Z,25.10
2023-04-25T08:09:10.654Z,23.17
2023-04-25T08:11:37.804Z,22.13
2023-04-25T08:14:05.159Z,21.27
2023-04-25T08:16:32.272Z,22.77
2023-04-25T08:19:00.860Z,20.80
2023-04-25T08:21:47.160Z,20.05
2023-04-25T08:24:14.488Z,17.70
2023-04-25T08:26:44.941Z,16.88
2023-04-25T08:29:12.209Z,13.65
2023-04-25T08:31:39.429Z,13.90
2023-04-25T08:37:19.671Z,11.70
2023-04-25T08:39:54.411Z,10.90
2023-04-25T08:42:23.542Z,11.27
2023-04-25T08:44:59.210Z,11.75
2023-04-25T08:47:28.412Z,10.93
2023-04-25T09:00:57.380Z,4.72
2023-04-25T09:03:32.278Z,5.10
2023-04-25T09:06:00.011Z,4.70
2023-04-25T09:13:34.986Z,5.00
2023-04-25T09:19:47.099Z,4.50
2023-04-25T09:22:19.344Z,4.00
2023-04-25T09:24:52.904Z,3.72
2023-04-25T09:27:21.216Z,4.07
2023-04-25T09:29:50.183Z,3.90
2023-04-25T09:32:24.853Z,3.33
2023-04-25T09:34:54.072Z,2.90
2023-04-25T09:37:25.025Z,4.57
2023-04-25T09:39:56.534Z,3.20
2023-04-25T09:42:25.336Z,4.50
2023-04-25T09:44:56.196Z,3.22
2023-04-25T09:47:24.862Z,3.35
2023-04-25T09:49:52.704Z,3.88
2023-04-25T09:52:25.672Z,2.95
2023-04-25T09:54:53.381Z,3.53
2023-04-25T09:57:27.238Z,2.70
2023-04-25T09:59:55.572Z,3.53
2023-04-25T10:02:24.375Z,2.80
2023-04-25T10:04:54.054Z,3.58
2023-04-25T10:07:22.587Z,3.23
2023-04-25T10:09:53.227Z,3.50
2023-04-25T10:14:47.563Z,3.13
2023-04-25T10:17:14.608Z,3.40
2023-04-25T10:19:41.964Z,5.28
2023-04-25T10:22:30.518Z,2.97
2023-04-25T10:24:57.766Z,2.40
2023-04-25T10:27:24.934Z,2.15
2023-04-25T10:30:16.813Z,2.33
2023-04-25T10:32:46.673Z,2.65
2023-04-25T10:35:36.959Z,2.33
2023-04-25T10:38:11.324Z,2.40
2023-04-25T10:40:38.566Z,2.75
2023-04-25T10:43:43.199Z,2.35
2023-04-25T10:51:55.467Z,2.60
2023-04-25T10:54:23.643Z,3.83
2023-04-25T10:56:51.277Z,3.25
2023-04-25T10:59:21.645Z,5.05
2023-04-25T11:01:53.062Z,3.38
2023-04-25T11:07:11.206Z,2.58
2023-04-25T11:09:41.237Z,2.08
2023-04-25T11:12:13.211Z,1.60
2023-04-25T11:25:38.464Z,2.65
2023-04-25T11:28:06.292Z,2.08
2023-04-25T11:30:36.137Z,2.08
2023-04-25T11:44:07.960Z,3.58
2023-04-25T11:59:27.258Z,2.50
2023-04-25T12:04:46.590Z,2.40
2023-04-25T12:07:22.696Z,2.72
2023-04-25T12:16:29.866Z,3.08
2023-04-25T12:19:01.499Z,3.35
2023-04-25T12:21:32.081Z,3.17
2023-04-25T12:29:29.574Z,4.32
2023-04-25T12:32:01.072Z,3.92
2023-04-25T12:34:35.635Z,3.20
2023-04-25T12:37:03.382Z,3.00
2023-04-25T12:39:36.545Z,2.40
2023-04-25T12:42:06.916Z,2.90
2023-04-25T12:44:39.285Z,3.10
2023-04-25T12:49:36.581Z,6.65
2023-04-25T12:52:04.831Z,4.03
2023-04-25T12:54:34.740Z,4.35
2023-04-25T12:57:06.134Z,4.72
2023-04-25T12:59:36.762Z,4.70
2023-04-25T13:02:06.331Z,5.25
2023-04-25T13:04:37.449Z,5.38
2023-04-25T13:10:35.299Z,2.80
2023-04-25T13:13:02.729Z,2.08
2023-04-25T13:15:30.122Z,2.55
2023-04-25T13:17:57.395Z,2.58
2023-04-25T13:20:25.032Z,2.15
2023-04-25T13:22:55.678Z,2.58
2023-04-25T13:27:56.276Z,3.08
2023-04-25T13:30:23.857Z,3.20
2023-04-25T13:32:51.271Z,3.63
2023-04-25T13:35:22.580Z,3.28
2023-04-25T13:41:18.980Z,3.80
2023-04-25T13:43:48.839Z,4.53
2023-04-25T13:46:46.554Z,3.40
2023-04-25T13:49:14.904Z,3.75
2023-04-25T13:51:43.632Z,3.67
2023-04-25T13:54:11.069Z,3.45
2023-04-25T13:56:38.288Z,3.25
2023-04-25T13:59:05.522Z,3.20
2023-04-25T14:01:35.649Z,3.58
2023-04-25T14:04:05.539Z,4.03
2023-04-25T14:06:33.301Z,4.15
2023-04-25T14:09:02.334Z,3.10
2023-04-25T14:11:32.673Z,3.22
2023-04-25T14:14:00.032Z,2.85
2023-04-25T14:16:27.565Z,2.97
2023-04-25T14:18:55.787Z,2.63
2023-04-25T14:21:22.975Z,3.28
2023-04-25T14:23:50.465Z,2.38
2023-04-25T14:26:17.776Z,2.35
2023-04-25T14:28:44.939Z,2.67
2023-04-25T14:31:12.045Z,2.75
2023-04-25T14:33:42.910Z,2.72
2023-04-25T14:36:10.428Z,3.67
2023-04-25T14:38:37.596Z,3.03
2023-04-25T14:41:08.277Z,2.50
2023-04-25T14:43:37.887Z,2.70
2023-04-25T14:46:09.689Z,2.75
2023-04-25T14:48:37.105Z,2.75
2023-04-25T14:51:04.567Z,3.03
2023-04-25T14:53:34.645Z,4.13
2023-04-25T14:56:01.724Z,4.22
2023-04-25T14:58:29.186Z,2.63
2023-04-25T15:00:56.881Z,2.83
2023-04-25T15:03:24.545Z,2.33
2023-04-25T15:05:51.932Z,2.47
2023-04-25T15:08:19.425Z,2.13
2023-04-25T15:10:47.535Z,1.88
2023-04-25T15:13:15.362Z,2.03
2023-04-25T15:15:42.659Z,1.90
2023-04-25T15:18:10.320Z,2.15
2023-04-25T15:20:37.765Z,2.20
2023-04-25T15:23:06.114Z,1.98
2023-04-25T15:25:33.377Z,2.30
2023-04-25T15:28:01.238Z,2.20
2023-04-25T15:30:28.547Z,4.05
2023-04-25T15:32:55.638Z,2.88
2023-04-25T15:35:22.834Z,3.97
2023-04-25T15:37:52.675Z,3.38
2023-04-25T15:40:19.836Z,4.72
2023-04-25T15:42:48.344Z,2.95
2023-04-25T15:45:17.593Z,6.68
2023-04-25T15:47:44.885Z,3.38
2023-04-25T15:50:12.550Z,3.42
2023-04-25T15:52:39.747Z,3.10
2023-04-25T15:55:07.914Z,2.00
2023-04-25T15:57:35.892Z,2.40
2023-04-25T16:00:13.534Z,2.20
2023-04-25T16:02:41.216Z,2.10
2023-04-25T16:05:09.403Z,2.60
2023-04-25T16:07:39.356Z,2.75
2023-04-25T16:10:07.277Z,2.70
2023-04-25T16:12:34.496Z,2.78
2023-04-25T16:15:05.598Z,3.08
2023-04-25T16:17:33.831Z,3.10
2023-04-25T16:20:13.659Z,6.30
2023-04-25T16:22:41.231Z,5.07
2023-04-25T16:25:08.833Z,2.22
2023-04-25T16:27:39.653Z,2.92
2023-04-25T16:30:08.625Z,3.60
2023-04-25T16:32:36.384Z,4.90
2023-04-25T16:35:03.727Z,7.35
2023-04-25T16:37:35.811Z,5.55
2023-04-25T16:40:03.290Z,6.82
2023-04-25T16:42:30.486Z,7.72
2023-04-25T16:44:57.875Z,10.30
2023-04-25T16:47:25.754Z,11.93
2023-04-25T16:49:53.450Z,14.93
2023-04-25T16:52:23.884Z,15.18
2023-04-25T16:54:51.241Z,21.27
2023-04-25T16:57:18.588Z,18.90
2023-04-25T16:59:46.178Z,14.13
2023-04-25T17:02:13.663Z,10.32
2023-04-25T17:04:41.261Z,7.13
2023-04-25T17:07:09.252Z,5.90
2023-04-25T17:09:36.608Z,5.55
2023-04-25T17:12:04.499Z,13.43
2023-04-25T17:14:33.424Z,17.58
2023-04-25T17:17:01.045Z,38.33
2023-04-25T17:19:28.801Z,33.83
2023-04-25T17:21:56.242Z,38.47
2023-04-25T17:24:23.265Z,36.97
2023-04-25T17:26:50.479Z,34.30
2023-04-25T17:29:17.727Z,30.77
2023-04-25T17:31:45.093Z,26.20
2023-04-25T17:34:16.676Z,28.15
2023-04-25T17:36:47.635Z,24.65
2023-04-25T17:39:17.805Z,16.80
2023-04-25T17:41:45.245Z,18.55
2023-04-25T17:44:12.373Z,23.17
2023-04-25T17:46:39.521Z,26.38
2023-04-25T17:49:06.793Z,26.02
2023-04-25T17:51:33.840Z,18.33
2023-04-25T17:54:00.960Z,16.67
2023-04-25T17:56:28.076Z,14.25
2023-04-25T17:58:55.944Z,17.10
2023-04-25T18:01:23.306Z,17.27
2023-04-25T18:03:51.086Z,16.83
2023-04-25T18:06:18.492Z,18.10
2023-04-25T18:08:46.064Z,16.33
2023-04-25T18:11:13.320Z,29.67
2023-04-25T18:13:41.607Z,33.47
2023-04-25T18:16:08.916Z,53.25
2023-04-25T18:18:37.151Z,68.90
2023-04-25T18:21:06.032Z,61.00
2023-04-25T18:23:39.804Z,52.13
2023-04-25T18:26:08.189Z,44.80
2023-04-25T18:28:35.659Z,40.20
2023-04-25T18:31:02.857Z,38.22
2023-04-25T18:33:30.216Z,31.15
2023-04-25T18:35:59.927Z,35.13
2023-04-25T18:41:13.035Z,35.72
2023-04-25T18:43:48.153Z,25.15
2023-04-25T18:46:15.481Z,20.92
2023-04-25T18:49:31.176Z,33.15
2023-04-25T18:51:58.530Z,30.05
2023-04-25T18:54:27.627Z,32.40
2023-04-25T18:56:57.557Z,40.28
2023-04-25T18:59:25.015Z,48.38
2023-04-25T19:01:53.841Z,46.85
2023-04-25T19:04:21.880Z,45.75
2023-04-25T19:06:54.764Z,47.67
2023-04-25T19:09:22.105Z,49.03
2023-04-25T19:11:49.483Z,53.97
2023-04-25T19:14:16.722Z,52.30
2023-04-25T19:16:44.155Z,48.83
2023-04-25T19:19:17.474Z,55.63
2023-04-25T19:21:44.740Z,53.17
2023-04-25T19:24:11.973Z,54.60
2023-04-25T19:26:39.226Z,52.28
2023-04-25T19:29:14.974Z,48.08
2023-04-25T19:31:45.327Z,48.92
2023-04-25T19:34:13.314Z,42.28
2023-04-25T19:36:42.575Z,39.88
2023-04-25T19:42:01.822Z,35.47
2023-04-25T19:44:41.058Z,36.78
2023-04-25T19:47:27.902Z,37.13
2023-04-25T19:49:55.588Z,37.63
2023-04-25T19:52:22.785Z,35.90
2023-04-25T19:55:01.223Z,40.00
2023-04-25T19:57:33.596Z,46.97
2023-04-25T20:00:17.912Z,49.03
2023-04-25T20:02:47.091Z,47.38
2023-04-25T20:05:24.056Z,45.63
2023-04-25T20:07:54.459Z,48.15
2023-04-25T20:10:21.780Z,46.28
2023-04-25T20:12:49.610Z,48.25
2023-04-25T20:15:17.824Z,53.17
2023-04-25T20:17:45.021Z,48.00
2023-04-25T20:20:12.459Z,40.78
2023-04-25T20:22:40.687Z,37.50
2023-04-25T20:25:09.317Z,33.22
2023-04-25T20:27:40.103Z,34.50
2023-04-25T20:30:12.309Z,34.00
2023-04-25T20:32:39.522Z,34.63
2023-04-25T20:35:11.818Z,37.10
2023-04-25T20:37:38.972Z,36.30
2023-04-25T20:40:09.916Z,36.97
2023-04-25T20:42:37.119Z,38.00
2023-04-25T20:45:12.575Z,36.67
2023-04-25T20:47:40.859Z,34.72
2023-04-25T20:50:08.642Z,35.00
2023-04-25T20:52:37.542Z,34.17
2023-04-25T20:55:06.077Z,33.65
2023-04-25T20:57:36.034Z,34.17
2023-04-25T21:00:20.156Z,33.58
2023-04-25T21:02:47.753Z,30.83
2023-04-25T21:05:18.268Z,33.17
2023-04-25T21:07:45.884Z,34.55
2023-04-25T21:10:23.034Z,33.22
2023-04-25T21:13:01.108Z,33.17
2023-04-25T21:15:30.314Z,29.65
2023-04-25T21:17:59.371Z,32.10
2023-04-25T21:20:29.266Z,32.85
2023-04-25T21:22:56.441Z,34.30
2023-04-25T21:25:29.358Z,34.88
2023-04-25T21:27:56.857Z,38.92
2023-04-25T21:30:26.372Z,39.83
2023-04-25T21:32:53.742Z,36.47
2023-04-25T21:35:21.587Z,35.97
2023-04-25T21:37:48.951Z,32.97
2023-04-25T21:40:16.392Z,31.92
2023-04-25T21:42:44.793Z,31.73
2023-04-25T21:45:12.284Z,33.70
2023-04-25T21:47:39.580Z,29.77
2023-04-25T21:50:08.126Z,35.42
2023-04-25T21:52:45.949Z,38.38
2023-04-25T21:55:13.230Z,36.30
2023-04-25T21:58:10.790Z,35.10
2023-04-25T22:00:38.353Z,33.72
2023-04-25T22:03:06.623Z,31.50
2023-04-25T22:05:35.316Z,31.40
2023-04-25T22:08:03.786Z,31.13
2023-04-25T22:10:31.806Z,31.33
2023-04-25T22:12:59.225Z,27.83
2023-04-25T22:15:26.672Z,29.45
2023-04-25T22:17:56.710Z,30.63
2023-04-25T22:20:26.445Z,34.22
2023-04-25T22:22:54.779Z,38.00
2023-04-25T22:25:22.471Z,37.13
2023-04-25T22:27:49.619Z,40.65
2023-04-25T22:30:17.083Z,45.97
2023-04-25T22:32:44.322Z,45.88
2023-04-25T22:35:12.192Z,44.00
2023-04-25T22:37:39.372Z,38.97
2023-04-25T22:40:07.340Z,38.15
2023-04-25T22:42:41.130Z,41.35
2023-04-25T22:45:09.028Z,41.33
2023-04-25T22:47:37.329Z,40.47
2023-04-25T22:50:07.905Z,38.55
2023-04-25T22:52:35.075Z,41.65
2023-04-25T22:55:05.616Z,44.45
2023-04-25T22:57:33.314Z,48.35
2023-04-25T23:00:00.477Z,61.72
2023-04-25T23:02:28.001Z,57.35
2023-04-25T23:04:55.304Z,55.08
2023-04-25T23:07:22.467Z,53.17
2023-04-25T23:09:49.647Z,57.45
2023-04-25T23:12:22.952Z,55.05
2023-04-25T23:14:52.991Z,37.13
2023-04-25T23:17:20.708Z,35.60
2023-04-25T23:19:48.637Z,33.80
2023-04-25T23:22:15.715Z,33.10
2023-04-25T23:24:42.815Z,33.58
2023-04-25T23:27:12.339Z,33.95
2023-04-25T23:29:40.780Z,32.47
2023-04-25T23:32:10.819Z,33.28
2023-04-25T23:34:38.159Z,35.03
2023-04-25T23:37:05.331Z,33.20
2023-04-25T23:39:33.933Z,24.35
2023-04-25T23:42:01.048Z,13.07
2023-04-25T23:44:28.136Z,8.68
2023-04-25T23:46:55.219Z,7.55
2023-04-25T23:49:22.902Z,7.07
2023-04-25T23:51:50.004Z,6.47
2023-04-25T23:54:17.136Z,6.63
2023-04-25T23:56:44.706Z,6.32
2023-04-25T23:59:11.945Z,6.75
